Time;durP1;ratioP1;P1;durP2;ratioP2;P2;SDS_P1;SDS_P2;PMS_P1;PMS_P2;Temp;Humidity;BMP_temperature;BMP_pressure;BME280_temperature;BME280_humidity;BME280_pressure;Samples;Min_cycle;Max_cycle;Signal;HPM_P1;HPM_P2
2021/07/22 00:06:52;;;;;;;13.00;5.28;;;29.60;26.00;;;;;;21067228;28;20052;-67
2021/07/22 00:16:53;;;;;;;17.42;6.65;;;29.60;26.60;;;;;;21084988;28;20051;-72
2021/07/22 00:26:55;;;;;;;10.98;5.22;;;29.50;29.60;;;;;;21065045;28;20067;-71
2021/07/22 00:36:56;;;;;;;15.40;5.45;;;29.40;30.00;;;;;;21083525;28;20128;-70
2021/07/22 00:46:59;;;;;;;8.38;4.65;;;29.30;30.00;;;;;;21081814;28;20596;-68
2021/07/22 00:57:00;;;;;;;11.23;4.60;;;29.20;30.70;;;;;;21082042;28;20134;-66
2021/07/22 01:07:01;;;;;;;15.20;4.45;;;29.10;31.30;;;;;;21080100;28;20105;-67
2021/07/22 01:17:08;;;;;;;11.27;4.47;;;29.00;31.30;;;;;;21080640;28;20048;-65
2021/07/22 01:27:11;;;;;;;8.63;4.50;;;29.00;32.50;;;;;;21149207;28;20055;-66
2021/07/22 01:37:13;;;;;;;9.20;3.80;;;28.80;32.20;;;;;;21144181;28;20048;-65
2021/07/22 01:47:15;;;;;;;10.25;4.18;;;28.60;33.00;;;;;;21162566;28;20075;-66
2021/07/22 01:57:17;;;;;;;10.38;4.03;;;28.60;33.30;;;;;;21161773;28;20051;-70
2021/07/22 02:07:18;;;;;;;13.32;3.92;;;28.50;33.20;;;;;;21162159;28;20100;-68
2021/07/22 02:17:19;;;;;;;10.98;4.38;;;28.30;33.50;;;;;;21160823;28;20115;-72
2021/07/22 02:27:21;;;;;;;14.27;4.95;;;;;;;;;;21159810;28;20059;-71
2021/07/22 02:37:23;;;;;;;14.02;6.45;;;;;;;;;;21159891;28;20408;-69
2021/07/22 02:47:26;;;;;;;10.57;6.72;;;;;;;;;;21160836;28;20083;-68
2021/07/22 02:57:28;;;;;;;13.27;6.70;;;28.20;32.40;;;;;;21171061;28;20079;-72
2021/07/22 03:07:29;;;;;;;14.70;7.28;;;27.70;33.20;;;;;;21174749;28;20047;-65
2021/07/22 03:17:30;;;;;;;12.48;6.90;;;27.60;33.30;;;;;;21173285;28;20051;-72
2021/07/22 03:27:32;;;;;;;12.98;6.13;;;;;;;;;;21154056;28;20484;-66
2021/07/22 03:37:34;;;;;;;8.88;4.40;;;;;;;;;;21172494;28;20097;-65
2021/07/22 03:47:37;;;;;;;8.73;4.45;;;;;;;;;;21170225;28;20154;-69
2021/07/22 03:57:42;;;;;;;7.70;4.25;;;;;;;;;;21170447;28;20039;-69
2021/07/22 04:07:48;;;;;;;10.07;4.32;;;28.30;34.80;;;;;;21168276;28;20055;-70
2021/07/22 04:17:59;;;;;;;8.27;4.57;;;28.00;35.20;;;;;;21168602;28;20076;-72
2021/07/22 04:28:21;;;;;;;6.88;5.00;;;27.20;36.40;;;;;;21166502;28;20051;-72
2021/07/22 04:38:26;;;;;;;12.70;5.93;;;27.00;36.50;;;;;;21166613;28;20043;-72
2021/07/22 04:48:47;;;;;;;10.82;6.47;;;26.80;36.50;;;;;;21167083;28;20054;-72
2021/07/22 04:58:52;;;;;;;11.13;4.80;;;26.70;36.40;;;;;;21165776;28;20039;-72
2021/07/22 05:08:55;;;;;;;9.60;4.30;;;26.60;36.70;;;;;;21166042;28;20552;-70
2021/07/22 05:18:59;;;;;;;7.57;4.00;;;26.60;36.80;;;;;;21163329;28;20104;-64
2021/07/22 05:29:05;;;;;;;11.50;3.85;;;26.60;37.00;;;;;;21164080;28;20142;-71
2021/07/22 05:39:09;;;;;;;9.43;3.83;;;26.60;36.80;;;;;;21164405;28;20499;-72
2021/07/22 05:49:12;;;;;;;12.52;4.35;;;26.70;36.70;;;;;;21163390;28;20058;-70
2021/07/22 05:59:14;;;;;;;11.60;4.65;;;26.70;36.70;;;;;;21163236;28;20044;-71
2021/07/22 06:09:15;;;;;;;11.73;4.25;;;26.80;36.70;;;;;;21142965;28;20055;-70
2021/07/22 06:19:18;;;;;;;8.95;3.80;;;26.80;36.80;;;;;;21160908;28;20077;-67
2021/07/22 06:29:22;;;;;;;10.05;4.50;;;26.80;36.50;;;;;;21169837;28;20134;-71
2021/07/22 06:39:24;;;;;;;14.43;4.00;;;26.90;36.30;;;;;;21176970;28;20407;-68
2021/07/22 06:49:33;;;;;;;10.68;4.55;;;27.00;36.10;;;;;;21159044;28;20056;-70
2021/07/22 06:59:37;;;;;;;17.33;4.93;;;27.10;36.00;;;;;;21175735;28;20048;-71
2021/07/22 07:09:40;;;;;;;12.05;4.10;;;27.50;35.60;;;;;;21157049;28;20054;-69
2021/07/22 07:19:41;;;;;;;11.70;3.97;;;28.10;34.40;;;;;;21174059;28;20519;-70
2021/07/22 07:29:47;;;;;;;12.43;4.30;;;28.60;33.40;;;;;;21172733;28;20043;-69
2021/07/22 07:39:49;;;;;;;10.88;4.00;;;29.60;32.60;;;;;;21172205;28;20067;-64
2021/07/22 07:49:58;;;;;;;10.23;4.80;;;29.50;32.30;;;;;;21172539;28;20058;-71
2021/07/22 08:00:02;;;;;;;10.95;4.50;;;29.70;31.70;;;;;;21170781;28;20043;-71
2021/07/22 08:10:06;;;;;;;13.70;5.45;;;30.10;31.20;;;;;;21171310;28;20503;-68
2021/07/22 08:20:10;;;;;;;8.63;4.43;;;30.50;30.30;;;;;;21173079;28;20054;-72
2021/07/22 08:30:13;;;;;;;9.85;4.38;;;30.70;29.70;;;;;;21197646;28;20193;-64
2021/07/22 08:40:16;;;;;;;8.88;4.63;;;31.10;29.60;;;;;;21195457;28;20063;-70
2021/07/22 08:50:22;;;;;;;12.43;4.38;;;31.30;28.60;;;;;;21149462;28;20051;-69
2021/07/22 09:00:29;;;;;;;13.98;5.30;;;31.40;28.80;;;;;;21167309;28;20043;-68
2021/07/22 09:10:34;;;;;;;16.70;5.07;;;31.70;28.50;;;;;;21165971;28;20047;-67
2021/07/22 09:20:37;;;;;;;13.85;5.10;;;31.90;28.30;;;;;;21165562;28;20135;-70
2021/07/22 09:31:00;;;;;;;22.45;5.80;;;32.10;28.40;;;;;;21165362;28;20197;-67
2021/07/22 09:41:02;;;;;;;13.80;5.63;;;32.50;28.10;;;;;;21145612;28;20051;-65
2021/07/22 09:51:05;;;;;;;13.25;4.85;;;32.60;27.90;;;;;;21164497;28;20123;-69
2021/07/22 10:01:14;;;;;;;16.87;5.43;;;32.80;27.80;;;;;;21167982;28;20180;-69
2021/07/22 10:11:17;;;;;;;14.80;5.90;;;32.90;27.40;;;;;;21180519;28;20055;-64
2021/07/22 10:21:22;;;;;;;11.93;5.22;;;32.90;27.00;;;;;;21178738;28;20050;-69
2021/07/22 10:31:26;;;;;;;12.70;5.40;;;33.20;26.40;;;;;;21177244;28;20047;-69
2021/07/22 10:41:41;;;;;;;15.63;5.97;;;33.30;26.40;;;;;;21231200;28;20115;-69
2021/07/22 10:51:45;;;;;;;22.42;7.15;;;33.60;26.20;;;;;;21161047;28;20048;-70
2021/07/22 11:01:50;;;;;;;11.77;6.40;;;33.80;26.00;;;;;;21175426;28;20048;-68
2021/07/22 11:11:55;;;;;;;12.90;6.95;;;33.80;25.20;;;;;;21172789;28;20130;-68
2021/07/22 11:21:57;;;;;;;12.63;6.00;;;34.00;24.50;;;;;;21172795;28;20048;-70
2021/07/22 11:32:03;;;;;;;8.50;5.82;;;34.10;24.40;;;;;;21172476;28;20500;-69
2021/07/22 11:42:11;;;;;;;11.73;5.63;;;34.20;23.30;;;;;;21171838;28;20043;-70
2021/07/22 11:52:13;;;;;;;11.60;4.97;;;34.50;22.10;;;;;;21171182;28;20058;-68
2021/07/22 12:02:16;;;;;;;12.35;5.00;;;34.80;21.80;;;;;;21170467;28;20139;-70
2021/07/22 12:12:24;;;;;;;11.85;4.80;;;35.10;21.80;;;;;;21169254;28;20063;-70
2021/07/22 12:22:27;;;;;;;8.10;5.18;;;35.30;20.30;;;;;;21121285;28;20087;-71
2021/07/22 12:32:30;;;;;;;7.38;4.45;;;35.40;20.10;;;;;;21083496;28;20048;-69
2021/07/22 12:42:32;;;;;;;14.23;6.55;;;35.50;19.70;;;;;;21082201;28;20439;-70
2021/07/22 12:52:48;;;;;;;9.80;5.50;;;35.60;19.40;;;;;;21083095;28;20074;-70
2021/07/22 13:02:56;;;;;;;10.55;5.00;;;35.70;18.30;;;;;;21084371;28;20492;-68
2021/07/22 13:12:58;;;;;;;8.30;5.88;;;35.80;18.40;;;;;;21088625;28;20052;-68
2021/07/22 13:23:08;;;;;;;10.03;6.53;;;36.00;17.80;;;;;;21084741;28;20512;-67
2021/07/22 13:33:23;;;;;;;8.88;5.20;;;36.00;18.60;;;;;;21082499;28;20441;-66
2021/07/22 13:43:25;;;;;;;9.70;6.20;;;36.10;18.50;;;;;;21082117;28;20048;-66
2021/07/22 13:53:32;;;;;;;8.25;6.82;;;36.10;18.50;;;;;;21079938;28;20076;-65
2021/07/22 14:03:33;;;;;;;9.82;6.22;;;36.20;18.70;;;;;;21083309;28;20416;-65
2021/07/22 14:13:36;;;;;;;9.20;6.10;;;36.20;18.60;;;;;;21100573;28;20518;-74
2021/07/22 14:23:38;;;;;;;9.85;6.22;;;36.40;18.40;;;;;;21106882;28;20169;-67
2021/07/22 14:33:40;;;;;;;12.82;6.13;;;36.60;17.90;;;;;;21115847;28;20143;-69
2021/07/22 14:43:41;;;;;;;9.50;6.50;;;36.70;17.90;;;;;;21087438;28;20055;-67
2021/07/22 14:53:42;;;;;;;9.80;5.93;;;36.90;17.50;;;;;;21101633;28;20127;-73
2021/07/22 15:03:44;;;;;;;11.13;6.20;;;36.90;18.00;;;;;;21100626;28;20044;-72
2021/07/22 15:13:48;;;;;;;11.35;7.55;;;37.00;17.30;;;;;;21096769;28;20446;-69
2021/07/22 15:23:50;;;;;;;9.80;5.78;;;36.80;17.20;;;;;;21088272;28;20051;-70
2021/07/22 15:33:52;;;;;;;9.98;6.30;;;37.10;17.00;;;;;;21086100;28;20181;-67
2021/07/22 15:43:54;;;;;;;8.82;6.18;;;37.00;16.90;;;;;;21088667;28;20048;-68
2021/07/22 15:53:56;;;;;;;8.85;6.60;;;37.10;17.30;;;;;;21086864;28;20093;-69
2021/07/22 16:03:58;;;;;;;10.38;6.18;;;37.10;17.70;;;;;;21084957;28;20453;-70
2021/07/22 16:14:02;;;;;;;10.05;6.30;;;37.00;17.40;;;;;;21085246;28;20052;-66
2021/07/22 16:24:04;;;;;;;10.75;6.45;;;36.90;18.20;;;;;;21084424;28;20048;-67
2021/07/22 16:34:08;;;;;;;10.75;6.35;;;36.90;17.50;;;;;;21082774;28;20056;-68
2021/07/22 16:44:09;;;;;;;7.90;5.18;;;36.70;17.80;;;;;;21080184;28;20051;-66
2021/07/22 16:54:11;;;;;;;9.40;5.75;;;36.80;17.30;;;;;;21080668;28;20044;-66
2021/07/22 17:04:13;;;;;;;8.85;5.35;;;36.80;17.10;;;;;;21079876;28;20048;-66
2021/07/22 17:14:15;;;;;;;8.70;5.70;;;36.80;17.10;;;;;;21077459;28;20123;-66
2021/07/22 17:24:19;;;;;;;8.57;5.30;;;36.70;17.10;;;;;;21078826;28;20066;-66
2021/07/22 17:34:20;;;;;;;10.13;5.93;;;36.70;16.70;;;;;;21081628;28;20134;-65
2021/07/22 17:44:22;;;;;;;9.00;5.53;;;36.60;17.10;;;;;;21078846;28;20087;-65
2021/07/22 17:54:24;;;;;;;10.95;6.55;;;36.50;17.40;;;;;;21079070;28;20044;-66
2021/07/22 18:04:27;;;;;;;8.07;5.40;;;36.30;17.70;;;;;;21077778;28;20044;-62
2021/07/22 18:14:28;;;;;;;10.65;6.88;;;36.20;17.80;;;;;;21077152;28;20071;-64
2021/07/22 18:24:30;;;;;;;7.85;6.50;;;36.10;17.80;;;;;;21084448;28;20051;-65
2021/07/22 18:35:02;;;;;;;10.18;5.85;;;36.00;18.00;;;;;;21092446;28;20060;-67
2021/07/22 18:45:05;;;;;;;6.72;5.43;;;35.80;17.30;;;;;;21090214;28;20101;-68
2021/07/22 18:55:07;;;;;;;9.35;6.25;;;35.60;17.70;;;;;;21089068;28;20458;-69
2021/07/22 19:05:09;;;;;;;10.02;6.32;;;35.40;17.80;;;;;;21090067;28;20442;-65
2021/07/22 19:15:12;;;;;;;8.30;6.13;;;35.10;18.10;;;;;;21089004;28;20055;-65
2021/07/22 19:25:15;;;;;;;13.20;6.03;;;34.80;18.50;;;;;;21089961;28;20114;-65
2021/07/22 19:35:16;;;;;;;8.82;6.57;;;34.60;18.70;;;;;;21087561;28;20072;-68
2021/07/22 19:45:19;;;;;;;9.70;6.65;;;34.40;18.60;;;;;;21088294;28;20492;-68
2021/07/22 19:55:20;;;;;;;11.77;7.05;;;34.20;18.90;;;;;;21085465;28;20434;-69
2021/07/22 20:05:21;;;;;;;10.90;6.97;;;34.00;18.90;;;;;;21086030;28;20044;-63
2021/07/22 20:15:23;;;;;;;11.05;7.82;;;33.80;19.30;;;;;;21085334;28;20511;-66
2021/07/22 20:25:24;;;;;;;11.90;8.35;;;33.60;20.10;;;;;;21083542;28;20534;-68
2021/07/22 20:35:25;;;;;;;12.18;8.85;;;33.40;20.80;;;;;;21083145;28;20462;-68
2021/07/22 20:45:27;;;;;;;13.50;10.45;;;33.20;21.30;;;;;;21081519;28;20058;-69
2021/07/22 20:55:29;;;;;;;10.40;9.38;;;33.00;21.70;;;;;;21081255;28;20084;-67
2021/07/22 21:05:31;;;;;;;13.73;9.63;;;32.80;21.90;;;;;;21080102;28;20105;-65
2021/07/22 21:15:33;;;;;;;17.02;10.52;;;32.60;22.40;;;;;;21080561;28;20048;-66
2021/07/22 21:25:35;;;;;;;12.43;10.27;;;32.50;22.40;;;;;;21081075;28;20381;-68
2021/07/22 21:35:37;;;;;;;15.07;10.38;;;32.20;23.00;;;;;;21079649;28;20050;-67
2021/07/22 21:45:41;;;;;;;14.15;9.75;;;32.00;23.10;;;;;;21078792;28;20494;-65
2021/07/22 21:55:45;;;;;;;20.40;11.43;;;31.80;23.60;;;;;;21079469;28;20055;-67
2021/07/22 22:05:47;;;;;;;18.45;13.25;;;31.50;23.90;;;;;;21094884;28;20051;-66
2021/07/22 22:15:52;;;;;;;13.75;10.27;;;32.10;24.00;;;;;;21095703;28;20381;-64
2021/07/22 22:25:54;;;;;;;16.23;14.48;;;31.20;24.60;;;;;;21094463;28;20560;-70
2021/07/22 22:35:56;;;;;;;14.57;10.88;;;31.00;24.80;;;;;;21093526;28;20492;-66
2021/07/22 22:45:57;;;;;;;15.27;11.95;;;30.90;25.10;;;;;;21092326;28;20059;-65
2021/07/22 22:56:00;;;;;;;17.25;11.70;;;30.70;25.20;;;;;;21091711;28;20113;-66
2021/07/22 23:06:01;;;;;;;18.42;13.57;;;30.50;25.80;;;;;;21089739;28;20055;-69
2021/07/22 23:16:03;;;;;;;15.82;11.82;;;30.40;26.70;;;;;;21090381;28;20048;-67
2021/07/22 23:26:05;;;;;;;16.17;10.95;;;30.20;27.00;;;;;;21088908;28;20052;-68
2021/07/22 23:36:07;;;;;;;16.50;11.05;;;30.10;27.20;;;;;;21088416;28;20051;-69
2021/07/22 23:46:09;;;;;;;14.73;10.45;;;;;;;;;;21086182;28;20134;-70
2021/07/22 23:56:11;;;;;;;16.60;11.35;;;;;;;;;;21087106;28;20472;-69
